createdAt,value
2023-03-06T00:00:29.368Z,28.68
2023-03-06T00:02:00.565Z,26.65
2023-03-06T00:03:31.913Z,25.73
2023-03-06T00:05:03.209Z,25.30
2023-03-06T00:06:34.637Z,24.26
2023-03-06T00:08:06.077Z,25.18
2023-03-06T00:09:37.451Z,25.00
2023-03-06T00:11:08.852Z,24.88
2023-03-06T00:12:40.164Z,24.60
2023-03-06T00:14:11.601Z,24.71
2023-03-06T00:15:43.039Z,22.71
2023-03-06T00:17:14.533Z,23.47
2023-03-06T00:18:50.919Z,22.39
2023-03-06T00:20:23.421Z,21.57
2023-03-06T00:21:55.041Z,20.38
2023-03-06T00:23:26.534Z,21.59
2023-03-06T00:24:57.829Z,20.62
2023-03-06T00:26:29.138Z,20.27
2023-03-06T00:28:00.537Z,18.92
2023-03-06T00:29:31.830Z,19.66
2023-03-06T00:31:03.856Z,19.95
2023-03-06T00:32:35.225Z,19.75
2023-03-06T00:34:06.519Z,20.07
2023-03-06T00:35:38.036Z,20.17
2023-03-06T00:37:09.437Z,19.09
2023-03-06T00:38:41.074Z,19.96
2023-03-06T00:40:17.359Z,19.49
2023-03-06T00:41:48.765Z,18.87
2023-03-06T00:43:20.164Z,19.31
2023-03-06T00:44:51.650Z,20.08
2023-03-06T00:46:23.034Z,20.00
2023-03-06T00:47:54.361Z,21.15
2023-03-06T00:49:25.764Z,20.61
2023-03-06T00:50:57.327Z,20.44
2023-03-06T00:52:28.702Z,21.35
2023-03-06T00:54:00.100Z,21.88
2023-03-06T00:55:36.302Z,22.20
2023-03-06T00:57:08.106Z,21.09
2023-03-06T00:58:40.103Z,21.84
2023-03-06T01:00:11.669Z,20.69
2023-03-06T01:01:42.987Z,19.82
2023-03-06T01:03:14.266Z,21.85
2023-03-06T01:04:45.592Z,21.29
2023-03-06T01:06:16.934Z,21.81
2023-03-06T01:07:48.374Z,22.04
2023-03-06T01:09:19.652Z,22.65
2023-03-06T01:10:51.210Z,21.35
2023-03-06T01:12:23.593Z,18.76
2023-03-06T01:13:55.129Z,21.12
2023-03-06T01:15:26.482Z,21.99
2023-03-06T01:16:57.783Z,21.80
2023-03-06T01:18:29.009Z,21.35
2023-03-06T01:20:00.297Z,22.14
2023-03-06T01:21:31.644Z,21.24
2023-03-06T01:23:02.930Z,21.36
2023-03-06T01:24:34.272Z,20.28
2023-03-06T01:26:05.452Z,20.48
2023-03-06T01:27:36.766Z,19.64
2023-03-06T01:29:08.150Z,21.27
2023-03-06T01:30:39.290Z,20.90
2023-03-06T01:32:10.692Z,20.47
2023-03-06T01:33:42.053Z,21.64
2023-03-06T01:35:13.526Z,23.24
2023-03-06T01:36:45.195Z,20.91
2023-03-06T01:38:16.682Z,22.32
2023-03-06T01:39:47.905Z,23.74
2023-03-06T01:41:19.191Z,25.24
2023-03-06T01:42:51.098Z,21.81
2023-03-06T01:44:22.542Z,24.36
2023-03-06T01:45:54.106Z,25.36
2023-03-06T01:47:25.887Z,22.79
2023-03-06T01:48:57.368Z,21.01
2023-03-06T01:50:29.264Z,24.04
2023-03-06T01:52:00.538Z,25.94
2023-03-06T01:53:31.727Z,23.48
2023-03-06T01:55:03.046Z,24.58
2023-03-06T01:56:34.481Z,25.47
2023-03-06T01:58:05.844Z,26.70
2023-03-06T01:59:37.264Z,25.94
2023-03-06T02:01:08.993Z,25.57
2023-03-06T02:02:40.414Z,23.65
2023-03-06T02:04:11.682Z,26.20
2023-03-06T02:05:43.057Z,24.18
2023-03-06T02:07:14.403Z,24.92
2023-03-06T02:08:45.699Z,24.73
2023-03-06T02:10:17.015Z,24.70
2023-03-06T02:11:48.731Z,23.39
2023-03-06T02:13:20.448Z,23.58
2023-03-06T02:14:51.680Z,23.71
2023-03-06T02:16:23.021Z,21.97
2023-03-06T02:17:54.589Z,25.02
2023-03-06T02:19:25.840Z,26.25
2023-03-06T02:20:57.161Z,26.92
2023-03-06T02:22:28.655Z,24.34
2023-03-06T02:24:00.005Z,24.13
2023-03-06T02:25:32.032Z,22.46
2023-03-06T02:27:03.592Z,22.23
2023-03-06T02:28:35.146Z,21.51
2023-03-06T02:30:06.769Z,19.68
2023-03-06T02:31:38.992Z,21.17
2023-03-06T02:33:10.273Z,19.73
2023-03-06T02:34:41.924Z,20.17
2023-03-06T02:36:18.849Z,19.82
2023-03-06T02:37:50.421Z,18.35
2023-03-06T02:39:21.912Z,17.35
2023-03-06T02:40:53.327Z,18.47
2023-03-06T02:42:24.803Z,19.27
2023-03-06T02:43:56.172Z,17.56
2023-03-06T02:45:27.627Z,17.59
2023-03-06T02:46:59.236Z,16.63
2023-03-06T02:48:30.537Z,17.30
2023-03-06T02:50:02.825Z,17.30
2023-03-06T02:51:34.145Z,18.29
2023-03-06T02:53:06.032Z,17.46
2023-03-06T02:54:37.565Z,18.91
2023-03-06T02:56:08.953Z,19.00
2023-03-06T02:57:40.157Z,19.20
2023-03-06T02:59:11.429Z,18.38
2023-03-06T03:00:42.788Z,18.36
2023-03-06T03:02:14.229Z,20.27
2023-03-06T03:03:45.569Z,20.84
2023-03-06T03:05:16.890Z,19.85
2023-03-06T03:06:48.301Z,17.80
2023-03-06T03:08:19.722Z,19.93
2023-03-06T03:09:51.031Z,20.50
2023-03-06T03:11:22.653Z,18.62
2023-03-06T03:12:53.976Z,16.19
2023-03-06T03:14:25.307Z,17.93
2023-03-06T03:15:56.571Z,19.80
2023-03-06T03:17:28.349Z,17.35
2023-03-06T03:18:59.656Z,20.16
2023-03-06T03:20:30.970Z,20.61
2023-03-06T03:22:02.460Z,21.59
2023-03-06T03:23:34.261Z,21.20
2023-03-06T03:25:10.806Z,19.96
2023-03-06T03:26:42.213Z,22.04
2023-03-06T03:28:13.610Z,22.75
2023-03-06T03:29:45.029Z,24.21
2023-03-06T03:31:16.596Z,24.85
2023-03-06T03:32:47.877Z,24.15
2023-03-06T03:34:19.079Z,24.13
2023-03-06T03:35:50.406Z,24.46
2023-03-06T03:37:21.646Z,22.68
2023-03-06T03:38:52.838Z,22.43
2023-03-06T03:40:24.099Z,23.26
2023-03-06T03:41:55.300Z,24.51
2023-03-06T03:43:26.686Z,23.68
2023-03-06T03:44:58.187Z,23.61
2023-03-06T03:46:29.750Z,24.98
2023-03-06T03:48:00.984Z,23.22
2023-03-06T03:49:32.294Z,23.45
2023-03-06T03:51:03.734Z,23.38
2023-03-06T03:52:34.948Z,23.60
2023-03-06T03:54:06.460Z,24.70
2023-03-06T03:55:37.810Z,24.57
2023-03-06T03:57:09.143Z,24.53
2023-03-06T03:58:40.658Z,24.34
2023-03-06T04:00:11.889Z,26.43
2023-03-06T04:01:43.045Z,25.36
2023-03-06T04:03:14.309Z,26.01
2023-03-06T04:04:45.717Z,26.49
2023-03-06T04:06:17.040Z,26.59
2023-03-06T04:07:48.589Z,26.11
2023-03-06T04:09:19.905Z,24.81
2023-03-06T04:10:51.413Z,25.68
2023-03-06T04:12:22.636Z,27.22
2023-03-06T04:13:54.698Z,27.02
2023-03-06T04:15:26.154Z,26.88
2023-03-06T04:16:57.628Z,26.67
2023-03-06T04:18:28.816Z,27.84
2023-03-06T04:20:00.005Z,28.22
2023-03-06T04:21:31.459Z,27.13
2023-03-06T04:23:02.552Z,28.09
2023-03-06T04:24:33.907Z,28.98
2023-03-06T04:26:05.205Z,28.85
2023-03-06T04:27:36.874Z,27.20
2023-03-06T04:29:08.121Z,25.81
2023-03-06T04:30:39.813Z,25.52
2023-03-06T04:32:11.083Z,23.95
2023-03-06T04:33:42.868Z,27.23
2023-03-06T04:35:14.081Z,25.67
2023-03-06T04:36:45.397Z,24.78
2023-03-06T04:38:16.703Z,26.78
2023-03-06T04:39:48.034Z,22.52
2023-03-06T04:41:19.295Z,23.22
2023-03-06T04:42:50.739Z,21.31
2023-03-06T04:44:21.885Z,19.35
2023-03-06T04:45:53.281Z,20.86
2023-03-06T04:47:24.597Z,22.41
2023-03-06T04:48:56.491Z,23.61
2023-03-06T04:50:28.276Z,19.11
2023-03-06T04:51:59.582Z,19.00
2023-03-06T04:53:30.874Z,16.14
2023-03-06T04:55:02.089Z,20.88
2023-03-06T04:56:33.490Z,21.22
2023-03-06T04:58:05.023Z,21.16
2023-03-06T04:59:39.091Z,21.19
2023-03-06T05:01:11.067Z,20.81
2023-03-06T05:02:42.288Z,19.52
2023-03-06T05:04:13.681Z,20.34
2023-03-06T05:05:45.182Z,18.32
2023-03-06T05:07:16.488Z,20.03
2023-03-06T05:08:47.998Z,17.79
2023-03-06T05:10:19.506Z,19.92
2023-03-06T05:11:50.661Z,18.41
2023-03-06T05:13:21.844Z,17.97
2023-03-06T05:14:53.124Z,14.52
2023-03-06T05:16:24.941Z,13.31
2023-03-06T05:17:56.400Z,16.06
2023-03-06T05:19:27.796Z,16.20
2023-03-06T05:20:58.969Z,15.84
2023-03-06T05:22:30.153Z,16.12
2023-03-06T05:24:01.329Z,15.26
2023-03-06T05:25:32.783Z,15.56
2023-03-06T05:27:03.958Z,16.88
2023-03-06T05:28:35.191Z,17.29
2023-03-06T05:30:06.657Z,17.36
2023-03-06T05:31:38.109Z,17.89
2023-03-06T05:33:09.395Z,19.15
2023-03-06T05:34:43.347Z,18.79
2023-03-06T05:36:14.614Z,20.72
2023-03-06T05:37:46.220Z,21.49
2023-03-06T05:39:17.709Z,21.85
2023-03-06T05:40:48.914Z,22.68
2023-03-06T05:42:20.204Z,24.13
2023-03-06T05:43:51.489Z,23.67
2023-03-06T05:45:22.726Z,25.64
2023-03-06T05:46:54.033Z,25.95
2023-03-06T05:48:25.580Z,26.10
2023-03-06T05:49:56.884Z,27.23
2023-03-06T05:51:28.304Z,27.58
2023-03-06T05:52:59.812Z,25.12
2023-03-06T05:54:31.378Z,22.54
2023-03-06T05:56:02.701Z,22.67
2023-03-06T05:57:34.408Z,22.55
2023-03-06T05:59:05.580Z,26.62
2023-03-06T06:00:36.839Z,23.10
2023-03-06T06:02:08.114Z,22.18
2023-03-06T06:03:39.753Z,22.81
2023-03-06T06:05:12.862Z,25.06
2023-03-06T06:06:44.640Z,24.58
2023-03-06T06:08:17.143Z,23.78
2023-03-06T06:09:48.461Z,23.25
2023-03-06T06:11:19.853Z,25.40
2023-03-06T06:12:51.138Z,24.98
2023-03-06T06:14:22.532Z,25.88
2023-03-06T06:15:53.828Z,25.16
2023-03-06T06:17:25.022Z,23.49
2023-03-06T06:18:56.322Z,24.47
2023-03-06T06:20:27.563Z,24.54
2023-03-06T06:21:59.130Z,23.45
2023-03-06T06:23:30.388Z,23.92
2023-03-06T06:25:01.545Z,23.66
2023-03-06T06:26:32.727Z,22.87
2023-03-06T06:28:03.899Z,22.32
2023-03-06T06:29:35.185Z,22.59
2023-03-06T06:31:06.435Z,22.84
2023-03-06T06:32:37.806Z,22.60
2023-03-06T06:34:09.081Z,21.20
2023-03-06T06:35:40.453Z,22.34
2023-03-06T06:37:11.585Z,20.68
2023-03-06T06:38:43.010Z,21.49
2023-03-06T06:40:14.269Z,22.95
2023-03-06T06:41:55.292Z,22.97
2023-03-06T06:43:31.353Z,23.04
2023-03-06T06:45:02.637Z,23.61
2023-03-06T06:47:19.288Z,24.60
2023-03-06T06:48:52.347Z,21.32
2023-03-06T06:50:23.666Z,23.76
2023-03-06T06:51:54.972Z,23.45
2023-03-06T06:53:27.459Z,22.11
2023-03-06T06:54:59.604Z,22.13
2023-03-06T06:56:30.840Z,22.34
2023-03-06T06:58:02.280Z,20.73
2023-03-06T06:59:33.942Z,21.97
2023-03-06T07:01:05.429Z,20.80
2023-03-06T07:02:36.653Z,21.21
2023-03-06T07:04:08.109Z,21.62
2023-03-06T07:05:39.457Z,20.91
2023-03-06T07:07:10.663Z,18.83
2023-03-06T07:08:42.076Z,20.76
2023-03-06T07:10:13.299Z,20.18
2023-03-06T07:11:44.484Z,21.07
2023-03-06T07:13:16.148Z,19.28
2023-03-06T07:14:48.285Z,21.58
2023-03-06T07:16:20.130Z,20.68
2023-03-06T07:17:51.390Z,20.25
2023-03-06T07:19:22.594Z,19.62
2023-03-06T07:20:54.180Z,21.87
2023-03-06T07:22:25.388Z,20.64
2023-03-06T07:23:56.841Z,20.85
2023-03-06T07:25:28.110Z,21.71
2023-03-06T07:26:59.328Z,21.22
2023-03-06T07:28:37.621Z,21.67
2023-03-06T07:30:17.551Z,23.09
2023-03-06T07:31:49.142Z,23.23
2023-03-06T07:33:20.373Z,20.63
2023-03-06T07:34:51.894Z,16.19
2023-03-06T07:36:23.361Z,14.72
2023-03-06T07:37:54.786Z,16.23
2023-03-06T07:39:26.109Z,16.71
2023-03-06T07:40:57.347Z,17.73
2023-03-06T07:42:28.615Z,21.22
2023-03-06T07:43:59.921Z,19.61
2023-03-06T07:45:31.425Z,14.48
2023-03-06T07:47:07.580Z,13.97
2023-03-06T07:48:38.836Z,20.47
2023-03-06T07:50:10.034Z,20.50
2023-03-06T07:51:41.273Z,19.93
2023-03-06T07:53:12.593Z,20.98
2023-03-06T07:54:43.879Z,21.93
2023-03-06T07:56:15.224Z,22.05
2023-03-06T07:57:46.584Z,21.60
2023-03-06T07:59:18.594Z,20.66
2023-03-06T08:00:50.023Z,22.15
2023-03-06T08:02:21.291Z,18.04
2023-03-06T08:03:52.811Z,22.87
2023-03-06T08:05:24.073Z,21.70
2023-03-06T08:06:56.636Z,22.03
2023-03-06T08:08:28.056Z,19.87
2023-03-06T08:09:59.328Z,19.14
2023-03-06T08:11:50.948Z,21.18
2023-03-06T08:13:22.266Z,19.61
2023-03-06T08:14:54.000Z,22.21
2023-03-06T08:16:26.232Z,18.45
2023-03-06T08:17:57.797Z,21.93
2023-03-06T08:19:29.182Z,13.72
2023-03-06T08:21:00.791Z,18.07
2023-03-06T08:22:32.618Z,22.99
2023-03-06T08:24:04.093Z,20.67
2023-03-06T08:25:35.598Z,26.44
2023-03-06T08:27:07.222Z,19.81
2023-03-06T08:28:38.643Z,19.13
2023-03-06T08:30:10.205Z,18.15
2023-03-06T08:31:41.702Z,18.23
2023-03-06T08:33:13.253Z,26.27
2023-03-06T08:34:44.588Z,25.30
2023-03-06T08:36:15.941Z,21.26
2023-03-06T08:37:47.295Z,22.92
2023-03-06T08:39:18.720Z,21.30
2023-03-06T08:40:50.109Z,21.96
2023-03-06T08:42:21.432Z,20.95
2023-03-06T08:43:53.101Z,19.03
2023-03-06T08:45:44.595Z,22.41
2023-03-06T08:47:16.904Z,16.92
2023-03-06T08:48:48.144Z,21.34
2023-03-06T08:50:19.460Z,24.33
2023-03-06T08:51:50.677Z,21.10
2023-03-06T08:53:30.445Z,19.82
2023-03-06T08:55:08.187Z,21.95
2023-03-06T08:56:39.526Z,18.12
2023-03-06T08:58:10.742Z,18.23
2023-03-06T08:59:42.093Z,18.64
2023-03-06T09:01:13.498Z,17.00
2023-03-06T09:02:45.049Z,15.00
2023-03-06T09:04:16.257Z,16.16
2023-03-06T09:05:47.657Z,16.22
2023-03-06T09:07:18.921Z,16.66
2023-03-06T09:08:50.475Z,15.50
2023-03-06T09:10:21.757Z,14.74
2023-03-06T09:11:53.342Z,16.14
2023-03-06T09:13:55.320Z,16.95
2023-03-06T09:15:41.699Z,19.29
2023-03-06T09:17:19.393Z,19.78
2023-03-06T09:18:50.665Z,19.29
2023-03-06T09:20:24.550Z,18.52
2023-03-06T09:21:56.222Z,16.77
2023-03-06T09:23:47.564Z,18.79
2023-03-06T09:25:28.829Z,20.13
2023-03-06T09:27:00.284Z,21.17
2023-03-06T09:28:31.694Z,20.30
2023-03-06T09:30:03.264Z,19.31
2023-03-06T09:31:34.829Z,18.85
2023-03-06T09:33:06.017Z,19.66
2023-03-06T09:34:42.442Z,20.35
2023-03-06T09:36:13.643Z,18.77
2023-03-06T09:37:44.922Z,19.39
2023-03-06T09:39:16.224Z,15.26
2023-03-06T09:40:47.628Z,17.63
2023-03-06T09:42:19.076Z,16.90
2023-03-06T09:43:50.458Z,19.94
2023-03-06T09:47:34.895Z,18.28
2023-03-06T09:49:41.111Z,20.20
2023-03-06T09:51:12.865Z,20.68
2023-03-06T09:52:44.693Z,20.03
2023-03-06T09:54:26.384Z,21.13
2023-03-06T09:55:58.230Z,20.74
2023-03-06T09:57:31.407Z,20.25
2023-03-06T09:59:02.966Z,19.39
2023-03-06T10:00:34.309Z,21.12
2023-03-06T10:02:05.997Z,20.33
2023-03-06T10:03:42.602Z,20.35
2023-03-06T10:05:14.074Z,21.52
2023-03-06T10:06:50.397Z,21.39
2023-03-06T10:08:21.793Z,21.63
2023-03-06T10:09:53.226Z,20.82
2023-03-06T10:11:24.461Z,20.34
2023-03-06T10:12:55.717Z,21.19
2023-03-06T10:14:26.928Z,20.94
2023-03-06T10:15:58.286Z,19.58
2023-03-06T10:17:29.490Z,21.83
2023-03-06T10:19:00.819Z,22.46
2023-03-06T10:20:32.283Z,21.71
2023-03-06T10:22:03.608Z,22.53
2023-03-06T10:23:34.825Z,23.58
2023-03-06T10:25:06.353Z,23.07
2023-03-06T10:26:37.706Z,18.96
2023-03-06T10:28:09.091Z,23.88
2023-03-06T10:29:42.145Z,24.32
2023-03-06T10:31:13.431Z,23.35
2023-03-06T10:32:49.020Z,25.47
2023-03-06T10:34:41.193Z,25.19
2023-03-06T10:36:12.916Z,23.91
2023-03-06T10:37:44.446Z,25.08
2023-03-06T10:39:16.185Z,25.95
2023-03-06T10:40:47.421Z,26.45
2023-03-06T10:42:18.639Z,25.94
2023-03-06T10:43:49.956Z,27.08
2023-03-06T10:45:21.355Z,25.27
2023-03-06T10:46:52.795Z,26.36
2023-03-06T10:48:24.027Z,25.95
2023-03-06T10:49:55.239Z,27.34
2023-03-06T10:51:26.645Z,27.20
2023-03-06T10:52:58.432Z,24.75
2023-03-06T10:54:30.207Z,22.74
2023-03-06T10:56:01.738Z,23.33
2023-03-06T10:57:33.171Z,26.78
2023-03-06T10:59:04.574Z,27.32
2023-03-06T11:00:36.141Z,26.62
2023-03-06T11:02:07.411Z,23.20
2023-03-06T11:03:38.770Z,24.23
2023-03-06T11:05:09.992Z,26.55
2023-03-06T11:06:41.207Z,21.21
2023-03-06T11:08:12.616Z,24.49
2023-03-06T11:09:44.157Z,24.69
2023-03-06T11:11:18.565Z,23.38
2023-03-06T11:12:53.829Z,16.46
2023-03-06T11:14:27.588Z,18.66
2023-03-06T11:15:59.051Z,19.30
2023-03-06T11:17:30.449Z,17.12
2023-03-06T11:19:02.120Z,17.92
2023-03-06T11:20:48.404Z,17.69
2023-03-06T11:22:22.046Z,19.74
2023-03-06T11:23:53.495Z,18.02
2023-03-06T11:25:24.933Z,19.86
2023-03-06T11:26:56.187Z,21.45
2023-03-06T11:28:27.495Z,20.89
2023-03-06T11:29:58.788Z,20.26
2023-03-06T11:31:30.362Z,18.82
2023-03-06T11:33:01.977Z,20.13
2023-03-06T11:34:33.404Z,20.90
2023-03-06T11:36:04.836Z,20.09
2023-03-06T11:37:36.151Z,17.98
2023-03-06T11:39:07.487Z,17.65
2023-03-06T11:40:38.748Z,16.76
2023-03-06T11:42:10.093Z,15.09
2023-03-06T11:43:41.301Z,15.60
2023-03-06T11:45:12.488Z,14.35
2023-03-06T11:46:43.941Z,11.54
2023-03-06T11:48:15.495Z,11.28
2023-03-06T11:49:46.727Z,10.74
2023-03-06T11:51:18.145Z,12.85
2023-03-06T11:52:49.497Z,11.05
2023-03-06T11:54:20.930Z,9.17
2023-03-06T11:55:52.303Z,9.18
2023-03-06T11:57:24.505Z,7.56
2023-03-06T11:58:56.076Z,6.51
2023-03-06T12:00:27.417Z,7.10
2023-03-06T12:02:03.875Z,7.88
2023-03-06T12:03:59.695Z,8.37
2023-03-06T12:05:32.663Z,8.83
2023-03-06T12:07:08.902Z,9.28
2023-03-06T12:09:27.051Z,8.52
2023-03-06T12:11:02.638Z,8.74
2023-03-06T12:12:34.033Z,8.32
2023-03-06T12:14:10.334Z,9.54
2023-03-06T12:15:42.217Z,9.84
2023-03-06T12:17:13.688Z,11.33
2023-03-06T12:18:45.068Z,11.11
2023-03-06T12:20:26.438Z,12.17
2023-03-06T12:21:57.896Z,13.02
2023-03-06T12:23:29.232Z,12.36
2023-03-06T12:25:31.163Z,13.05
2023-03-06T12:27:02.446Z,14.83
2023-03-06T12:28:33.868Z,13.89
2023-03-06T12:30:05.450Z,14.74
2023-03-06T12:31:58.586Z,13.84
2023-03-06T12:33:30.037Z,13.40
2023-03-06T12:35:01.960Z,13.47
2023-03-06T12:36:34.079Z,13.84
2023-03-06T12:38:05.420Z,13.27
2023-03-06T12:39:36.773Z,14.40
2023-03-06T12:43:35.788Z,11.20
2023-03-06T12:45:07.236Z,13.30
2023-03-06T12:46:53.550Z,7.93
2023-03-06T12:48:54.840Z,9.89
2023-03-06T12:50:26.129Z,11.66
2023-03-06T12:51:57.471Z,9.78
2023-03-06T12:53:29.025Z,11.17
2023-03-06T12:55:00.381Z,10.49
2023-03-06T12:56:31.668Z,10.00
2023-03-06T12:58:12.927Z,12.09
2023-03-06T12:59:44.484Z,11.88
2023-03-06T13:01:15.853Z,9.61
2023-03-06T13:02:47.515Z,7.84
2023-03-06T13:04:29.125Z,6.61
2023-03-06T13:06:00.431Z,9.36
2023-03-06T13:07:31.732Z,8.62
2023-03-06T13:09:03.546Z,11.05
2023-03-06T13:10:35.012Z,10.34
2023-03-06T13:12:11.689Z,8.63
2023-03-06T13:13:43.164Z,7.38
2023-03-06T13:15:14.518Z,8.59
2023-03-06T13:16:46.246Z,7.16
2023-03-06T13:18:17.624Z,8.35
2023-03-06T13:19:48.848Z,10.60
2023-03-06T13:21:20.241Z,10.11
2023-03-06T13:22:51.697Z,10.62
2023-03-06T13:24:22.974Z,9.08
2023-03-06T13:26:09.253Z,8.55
2023-03-06T13:27:40.813Z,10.18
2023-03-06T13:29:18.357Z,9.52
2023-03-06T13:31:21.312Z,11.20
2023-03-06T13:32:57.646Z,10.80
2023-03-06T13:34:29.093Z,10.62
2023-03-06T13:36:00.481Z,11.22
2023-03-06T13:37:32.054Z,10.46
2023-03-06T13:39:04.044Z,9.47
2023-03-06T13:40:35.440Z,7.15
2023-03-06T13:42:06.620Z,9.03
2023-03-06T13:43:37.863Z,9.49
2023-03-06T13:45:09.125Z,10.12
2023-03-06T13:46:40.685Z,8.37
2023-03-06T13:48:41.691Z,8.09
2023-03-06T13:50:15.651Z,9.11
2023-03-06T13:51:47.308Z,9.89
2023-03-06T13:53:19.079Z,10.24
2023-03-06T13:54:50.883Z,9.31
2023-03-06T13:56:22.563Z,9.52
2023-03-06T13:57:54.143Z,10.02
2023-03-06T13:59:25.407Z,10.02
2023-03-06T14:00:56.762Z,9.94
2023-03-06T14:02:28.191Z,10.26
2023-03-06T14:04:04.775Z,9.88
2023-03-06T14:05:41.581Z,8.05
2023-03-06T14:07:12.934Z,7.58
2023-03-06T14:08:44.359Z,8.45
2023-03-06T14:10:15.684Z,8.27
2023-03-06T14:11:47.336Z,7.55
2023-03-06T14:13:35.101Z,8.13
2023-03-06T14:15:24.880Z,8.09
2023-03-06T14:16:56.298Z,7.92
2023-03-06T14:18:27.617Z,7.66
2023-03-06T14:20:04.258Z,7.72
2023-03-06T14:21:35.750Z,7.36
2023-03-06T14:23:07.088Z,6.95
2023-03-06T14:24:38.397Z,7.48
2023-03-06T14:26:09.602Z,7.59
2023-03-06T14:27:41.111Z,6.87
2023-03-06T14:29:12.311Z,7.11
2023-03-06T14:30:43.583Z,7.15
2023-03-06T14:32:15.139Z,7.21
2023-03-06T14:33:46.643Z,6.74
2023-03-06T14:35:17.899Z,7.03
2023-03-06T14:36:49.161Z,6.38
2023-03-06T14:38:47.239Z,6.13
2023-03-06T14:40:29.010Z,5.92
2023-03-06T14:42:00.527Z,5.55
2023-03-06T14:43:31.801Z,5.20
2023-03-06T14:45:03.136Z,4.52
2023-03-06T14:46:34.638Z,4.53
2023-03-06T14:48:06.079Z,4.70
2023-03-06T14:49:37.497Z,4.54
2023-03-06T14:51:22.138Z,4.36
2023-03-06T14:52:53.810Z,3.69
2023-03-06T14:54:25.128Z,3.14
2023-03-06T14:56:22.728Z,4.29
2023-03-06T14:57:54.009Z,3.16
2023-03-06T14:59:40.245Z,2.95
2023-03-06T15:01:11.623Z,3.27
2023-03-06T15:02:42.987Z,3.43
2023-03-06T15:04:14.257Z,4.18
2023-03-06T15:05:45.532Z,4.39
2023-03-06T15:07:17.251Z,3.62
2023-03-06T15:08:48.754Z,4.04
2023-03-06T15:10:20.100Z,3.59
2023-03-06T15:11:52.683Z,3.54
2023-03-06T15:13:23.983Z,3.82
2023-03-06T15:14:55.272Z,3.89
2023-03-06T15:16:28.439Z,4.63
2023-03-06T15:18:01.039Z,5.19
2023-03-06T15:19:56.753Z,5.90
2023-03-06T15:21:28.107Z,6.54
2023-03-06T15:22:59.884Z,6.85
2023-03-06T15:24:31.165Z,6.59
2023-03-06T15:26:02.460Z,6.11
2023-03-06T15:27:33.845Z,6.22
2023-03-06T15:29:09.244Z,5.76
2023-03-06T15:30:41.157Z,6.53
2023-03-06T15:32:12.380Z,5.64
2023-03-06T15:33:43.845Z,6.03
2023-03-06T15:35:15.427Z,7.04
2023-03-06T15:36:46.796Z,7.91
2023-03-06T15:38:18.157Z,8.81
2023-03-06T15:39:49.374Z,9.49
2023-03-06T15:41:20.654Z,9.93
2023-03-06T15:42:52.165Z,10.03
2023-03-06T15:44:23.451Z,9.98
2023-03-06T15:45:54.973Z,9.78
2023-03-06T15:47:26.219Z,10.51
2023-03-06T15:49:07.580Z,10.17
2023-03-06T15:51:26.498Z,10.42
2023-03-06T15:52:57.834Z,9.82
2023-03-06T15:54:31.372Z,10.30
2023-03-06T15:56:04.100Z,10.55
2023-03-06T15:57:35.475Z,11.24
2023-03-06T15:59:06.722Z,11.61
2023-03-06T16:00:38.213Z,11.28
2023-03-06T16:02:09.516Z,11.30
2023-03-06T16:04:10.433Z,11.47
2023-03-06T16:06:37.384Z,12.12
2023-03-06T16:08:09.014Z,12.90
2023-03-06T16:10:03.731Z,13.21
2023-03-06T16:11:45.393Z,12.98
2023-03-06T16:13:17.278Z,13.37
2023-03-06T16:14:48.771Z,12.72
2023-03-06T16:16:40.983Z,13.42
2023-03-06T16:18:12.698Z,13.02
2023-03-06T16:19:43.897Z,12.98
2023-03-06T16:21:31.099Z,13.11
2023-03-06T16:23:02.345Z,12.62
2023-03-06T16:24:33.654Z,12.64
2023-03-06T16:26:04.887Z,13.65
2023-03-06T16:27:36.518Z,14.18
2023-03-06T16:29:07.846Z,12.99
2023-03-06T16:30:49.296Z,12.77
2023-03-06T16:32:20.723Z,11.91
2023-03-06T16:33:52.247Z,12.08
2023-03-06T16:35:23.515Z,11.31
2023-03-06T16:36:55.278Z,11.64
2023-03-06T16:38:26.517Z,11.90
2023-03-06T16:39:57.856Z,10.92
2023-03-06T16:41:29.232Z,11.63
2023-03-06T16:43:00.591Z,12.66
2023-03-06T16:44:32.223Z,12.09
2023-03-06T16:46:03.637Z,10.73
2023-03-06T16:47:40.021Z,11.71
2023-03-06T16:49:11.270Z,13.59
2023-03-06T16:50:42.644Z,12.32
2023-03-06T16:52:13.817Z,12.09
2023-03-06T16:53:44.990Z,12.50
2023-03-06T16:55:16.276Z,12.20
2023-03-06T16:56:47.669Z,13.49
2023-03-06T16:58:19.144Z,13.90
2023-03-06T16:59:51.866Z,14.24
2023-03-06T17:01:23.174Z,14.16
2023-03-06T17:02:54.521Z,13.86
2023-03-06T17:04:25.752Z,14.34
2023-03-06T17:05:57.019Z,14.04
2023-03-06T17:07:28.378Z,14.35
2023-03-06T17:08:59.812Z,14.81
2023-03-06T17:10:31.230Z,14.57
2023-03-06T17:12:02.742Z,14.51
2023-03-06T17:13:34.021Z,14.74
2023-03-06T17:15:05.449Z,15.73
2023-03-06T17:16:36.832Z,15.46
2023-03-06T17:18:08.138Z,16.11
2023-03-06T17:19:39.486Z,15.85
2023-03-06T17:21:10.754Z,15.90
2023-03-06T17:22:42.002Z,16.50
2023-03-06T17:24:13.206Z,16.39
2023-03-06T17:25:44.674Z,16.13
2023-03-06T17:27:16.114Z,14.14
2023-03-06T17:28:47.382Z,14.31
2023-03-06T17:30:18.687Z,16.75
2023-03-06T17:31:51.150Z,16.96
2023-03-06T17:33:22.582Z,17.66
2023-03-06T17:34:53.822Z,17.99
2023-03-06T17:36:25.044Z,18.58
2023-03-06T17:37:56.381Z,18.58
2023-03-06T17:39:27.822Z,18.94
2023-03-06T17:40:59.536Z,19.02
2023-03-06T17:42:30.973Z,18.91
2023-03-06T17:44:02.323Z,18.93
2023-03-06T17:45:33.585Z,18.94
2023-03-06T17:47:04.827Z,17.73
2023-03-06T17:48:36.157Z,19.50
2023-03-06T17:50:07.520Z,19.40
2023-03-06T17:52:04.216Z,18.41
2023-03-06T17:53:35.526Z,18.27
2023-03-06T17:55:06.957Z,19.41
2023-03-06T17:56:38.430Z,19.81
2023-03-06T17:58:12.093Z,18.72
2023-03-06T17:59:43.636Z,18.98
2023-03-06T18:01:14.989Z,13.67
2023-03-06T18:02:46.380Z,16.35
2023-03-06T18:04:17.872Z,17.76
2023-03-06T18:05:49.247Z,17.27
2023-03-06T18:07:20.459Z,17.15
2023-03-06T18:08:52.890Z,16.22
2023-03-06T18:10:24.584Z,14.16
2023-03-06T18:11:55.875Z,17.56
2023-03-06T18:13:27.137Z,16.79
2023-03-06T18:14:58.575Z,17.23
2023-03-06T18:16:29.995Z,17.41
2023-03-06T18:18:01.256Z,17.92
2023-03-06T18:19:32.482Z,13.46
2023-03-06T18:21:03.701Z,15.28
2023-03-06T18:22:34.984Z,16.15
2023-03-06T18:24:06.508Z,17.04
2023-03-06T18:25:38.066Z,16.07
2023-03-06T18:27:09.276Z,17.01
2023-03-06T18:28:40.629Z,18.21
2023-03-06T18:30:11.948Z,17.03
2023-03-06T18:31:43.199Z,17.49
2023-03-06T18:33:14.564Z,15.80
2023-03-06T18:34:46.039Z,16.56
2023-03-06T18:36:17.757Z,17.69
2023-03-06T18:37:49.460Z,18.49
2023-03-06T18:39:20.994Z,18.48
2023-03-06T18:40:52.401Z,18.66
2023-03-06T18:42:46.457Z,19.08
2023-03-06T18:44:17.875Z,16.29
2023-03-06T18:45:49.123Z,18.00
2023-03-06T18:47:20.513Z,18.41
2023-03-06T18:48:51.751Z,17.87
2023-03-06T18:50:23.013Z,18.51
2023-03-06T18:51:54.360Z,18.15
2023-03-06T18:53:25.537Z,18.26
2023-03-06T18:54:57.085Z,18.90
2023-03-06T18:56:28.616Z,20.00
2023-03-06T18:57:59.999Z,19.56
2023-03-06T18:59:31.505Z,20.44
2023-03-06T19:01:02.741Z,20.37
2023-03-06T19:02:34.191Z,19.68
2023-03-06T19:04:05.599Z,18.98
2023-03-06T19:05:37.276Z,19.78
2023-03-06T19:07:28.634Z,19.60
2023-03-06T19:08:59.919Z,19.40
2023-03-06T19:10:31.241Z,20.28
2023-03-06T19:12:02.559Z,19.78
2023-03-06T19:13:33.830Z,19.49
2023-03-06T19:15:05.240Z,20.39
2023-03-06T19:16:36.637Z,20.51
2023-03-06T19:18:07.795Z,20.20
2023-03-06T19:19:39.068Z,20.16
2023-03-06T19:21:10.379Z,19.16
2023-03-06T19:22:41.859Z,19.62
2023-03-06T19:24:33.192Z,17.45
2023-03-06T19:26:04.743Z,19.13
2023-03-06T19:27:36.074Z,19.00
2023-03-06T19:29:07.399Z,19.94
2023-03-06T19:30:38.795Z,20.71
2023-03-06T19:32:28.356Z,19.06
2023-03-06T19:34:00.115Z,19.59
2023-03-06T19:35:32.010Z,16.68
2023-03-06T19:37:03.379Z,18.06
2023-03-06T19:39:10.237Z,19.40
2023-03-06T19:40:41.566Z,18.96
2023-03-06T19:42:13.863Z,19.24
2023-03-06T19:43:45.399Z,18.89
2023-03-06T19:45:40.843Z,18.12
2023-03-06T19:47:12.186Z,19.35
2023-03-06T19:48:44.801Z,15.49
2023-03-06T19:50:15.976Z,17.15
2023-03-06T19:51:47.293Z,17.79
2023-03-06T19:53:18.557Z,19.50
2023-03-06T19:54:50.273Z,17.26
2023-03-06T19:56:41.523Z,17.41
2023-03-06T19:58:12.820Z,19.79
2023-03-06T19:59:44.175Z,16.75
2023-03-06T20:01:15.418Z,16.79
2023-03-06T20:02:47.027Z,19.34
2023-03-06T20:04:43.331Z,18.96
2023-03-06T20:06:45.368Z,19.75
2023-03-06T20:08:16.949Z,15.56
2023-03-06T20:09:48.786Z,17.73